Time;durP1;ratioP1;P1;durP2;ratioP2;P2;SDS_P1;SDS_P2;PMS_P1;PMS_P2;Temp;Humidity;BMP_temperature;BMP_pressure;BME280_temperature;BME280_humidity;BME280_pressure;Samples;Min_cycle;Max_cycle;Signal;HPM_P1;HPM_P2
2023/02/27 00:02:23;;;;;;;11.23;2.97;;;;;;;;;;5031464;28;20025;-73
2023/02/27 00:04:49;;;;;;;6.60;3.07;;;;;;;;;;5013793;28;20116;-73
2023/02/27 00:07:15;;;;;;;5.73;2.77;;;;;;;;;;5014003;28;20029;-72
2023/02/27 00:09:41;;;;;;;10.40;3.40;;;;;;;;;;5014538;28;20446;-74
2023/02/27 00:12:07;;;;;;;8.13;3.10;;;;;;;;;;5033895;28;20064;-72
2023/02/27 00:14:33;;;;;;;3.30;2.53;;;;;;;;;;5017263;28;20053;-74
2023/02/27 00:16:59;;;;;;;12.07;3.70;;;;;;;;;;5029628;28;20085;-73
2023/02/27 00:19:25;;;;;;;5.87;3.17;;;;;;;;;;5040285;28;20434;-73
2023/02/27 00:21:50;;;;;;;4.03;2.97;;;;;;;;;;5015750;28;20079;-73
2023/02/27 00:24:16;;;;;;;7.03;3.47;;;;;;;;;;5032178;28;20116;-73
2023/02/27 00:26:41;;;;;;;10.80;3.47;;;;;;;;;;5030910;28;20025;-74
2023/02/27 00:29:07;;;;;;;6.33;2.70;;;;;;;;;;5029094;28;20677;-74
2023/02/27 00:31:33;;;;;;;5.93;2.77;;;;;;;;;;5013094;28;20105;-74
2023/02/27 00:33:59;;;;;;;5.83;3.27;;;;;;;;;;5012911;28;20029;-73
2023/02/27 00:36:24;;;;;;;8.30;2.70;;;;;;;;;;5012926;28;20440;-73
2023/02/27 00:38:49;;;;;;;3.40;2.50;;;;;;;;;;5030180;28;20123;-73
2023/02/27 00:41:15;;;;;;;7.23;3.33;;;;;;;;;;5030801;28;20369;-73
2023/02/27 00:43:40;;;;;;;5.87;2.90;;;;;;;;;;5012841;28;20048;-73
2023/02/27 00:46:06;;;;;;;6.17;3.93;;;;;;;;;;5012772;28;20061;-74
2023/02/27 00:48:32;;;;;;;5.33;2.33;;;;;;;;;;5012017;28;20025;-74
2023/02/27 00:50:57;;;;;;;8.73;2.93;;;;;;;;;;5031117;28;20100;-74
2023/02/27 00:53:23;;;;;;;6.47;2.57;;;;;;;;;;5013371;28;20021;-74
2023/02/27 00:55:49;;;;;;;9.00;4.27;;;;;;;;;;5029012;28;20079;-73
2023/02/27 00:58:15;;;;;;;8.53;3.43;;;;;;;;;;5012468;28;20487;-72
2023/02/27 01:00:40;;;;;;;6.87;2.83;;;;;;;;;;5030374;28;20041;-72
2023/02/27 01:03:06;;;;;;;6.10;2.90;;;;;;;;;;5012134;28;20049;-73
2023/02/27 01:05:31;;;;;;;4.50;3.23;;;;;;;;;;5030151;28;20378;-73
2023/02/27 01:07:57;;;;;;;5.07;3.13;;;;;;;;;;5012394;28;20029;-73
2023/02/27 01:10:22;;;;;;;6.07;2.57;;;;;;;;;;5012847;28;20063;-74
2023/02/27 01:12:48;;;;;;;4.57;2.67;;;;;;;;;;5013851;28;20477;-73
2023/02/27 01:15:14;;;;;;;5.83;2.47;;;;;;;;;;5012871;28;20076;-74
2023/02/27 01:17:39;;;;;;;8.60;2.93;;;;;;;;;;5030358;28;20112;-73
2023/02/27 01:20:08;;;;;;;4.63;2.93;;;;;;;;;;5028214;28;20231;-73
2023/02/27 01:22:34;;;;;;;9.10;3.10;;;;;;;;;;5012139;28;20124;-74
2023/02/27 01:25:00;;;;;;;6.30;3.00;;;;;;;;;;5030140;28;20097;-73
2023/02/27 01:27:26;;;;;;;8.70;3.10;;;;;;;;;;5012074;28;20029;-72
2023/02/27 01:29:52;;;;;;;4.67;2.60;;;;;;;;;;5029708;28;20032;-73
2023/02/27 01:32:17;;;;;;;4.60;3.47;;;;;;;;;;5012131;28;20022;-73
2023/02/27 01:34:43;;;;;;;4.23;2.67;;;;;;;;;;5028644;28;20678;-73
2023/02/27 01:37:08;;;;;;;9.70;3.50;;;;;;;;;;5012370;28;20037;-73
2023/02/27 01:39:35;;;;;;;4.67;2.63;;;;;;;;;;5012248;28;20034;-74
2023/02/27 01:42:01;;;;;;;7.27;3.50;;;;;;;;;;5028820;28;20554;-73
2023/02/27 01:44:28;;;;;;;7.53;2.90;;;;;;;;;;5030322;28;20022;-73
2023/02/27 01:46:54;;;;;;;8.90;2.60;;;;;;;;;;5012045;28;20021;-73
2023/02/27 01:49:22;;;;;;;5.23;2.57;;;;;;;;;;5029807;28;20040;-74
2023/02/27 01:51:55;;;;;;;4.20;2.40;;;;;;;;;;5011779;28;20026;-73
2023/02/27 01:54:25;;;;;;;11.77;3.10;;;;;;;;;;5011930;28;20183;-73
2023/02/27 01:56:51;;;;;;;6.70;3.10;;;;;;;;;;5011794;28;20117;-74
2023/02/27 01:59:18;;;;;;;9.57;2.70;;;;;;;;;;5012060;28;20041;-73
2023/02/27 02:01:44;;;;;;;4.20;2.13;;;;;;;;;;5015702;28;20029;-73
2023/02/27 02:04:28;;;;;;;9.77;2.60;;;;;;;;;;5016073;28;20187;-73
2023/02/27 02:07:00;;;;;;;6.63;3.17;;;;;;;;;;5033365;28;20423;-73
2023/02/27 02:09:26;;;;;;;;;;;;;;;;;;5016292;28;20025;-74
2023/02/27 02:11:53;;;;;;;10.73;2.67;;;;;;;;;;5033684;28;19909;-73
2023/02/27 02:14:18;;;;;;;4.23;2.40;;;;;;;;;;5033232;28;20034;-74
2023/02/27 02:17:07;;;;;;;6.50;2.37;;;;;;;;;;5033595;28;20021;-74
2023/02/27 02:20:12;;;;;;;7.73;2.20;;;;;;;;;;5015767;28;20037;-73
2023/02/27 02:22:49;;;;;;;6.23;2.30;;;;;;;;;;5030127;28;20365;-72
2023/02/27 02:25:36;;;;;;;5.63;2.40;;;;;;;;;;5033965;28;20031;-74
2023/02/27 02:28:33;;;;;;;2.60;2.20;;;;;;;;;;5033612;28;20135;-74
2023/02/27 02:31:36;;;;;;;6.63;2.83;;;;;;;;;;4929255;28;20039;-74
2023/02/27 02:34:39;;;;;;;7.95;2.53;;;;;;;;;;5031402;28;20029;-73
2023/02/27 02:37:32;;;;;;;6.93;3.03;;;;;;;;;;5031748;28;20037;-74
2023/02/27 02:40:13;;;;;;;7.10;2.30;;;;;;;;;;5033095;28;20124;-74
2023/02/27 02:43:10;;;;;;;4.57;2.23;;;;;;;;;;5015892;28;20033;-74
2023/02/27 02:45:48;;;;;;;7.07;3.43;;;;;;;;;;5015646;28;20033;-72
2023/02/27 02:48:29;;;;;;;8.50;2.70;;;;;;;;;;5032811;28;20477;-73
2023/02/27 02:51:16;;;;;;;4.80;2.27;;;;;;;;;;5014263;28;20033;-73
2023/02/27 02:53:58;;;;;;;5.43;3.03;;;;;;;;;;5033051;28;20026;-73
2023/02/27 02:56:48;;;;;;;7.47;2.40;;;;;;;;;;5015014;28;20110;-73
2023/02/27 02:59:32;;;;;;;8.93;2.43;;;;;;;;;;5014466;28;20076;-73
2023/02/27 03:02:10;;;;;;;5.13;2.30;;;;;;;;;;5014576;28;20029;-73
2023/02/27 03:04:43;;;;;;;4.63;2.37;;;;;;;;;;5014892;28;20029;-73
2023/02/27 03:07:20;;;;;;;2.90;2.33;;;;;;;;;;5015002;28;20083;-74
2023/02/27 03:10:03;;;;;;;5.93;2.53;;;;;;;;;;5014601;28;20051;-74
2023/02/27 03:12:32;;;;;;;7.40;2.93;;;;;;;;;;5013925;28;20025;-74
2023/02/27 03:15:05;;;;;;;9.27;2.50;;;;;;;;;;4998227;28;20069;-73
2023/02/27 03:17:45;;;;;;;6.63;2.63;;;;;;;;;;5014771;28;20116;-74
2023/02/27 03:20:17;;;;;;;9.13;3.20;;;;;;;;;;5032087;28;20044;-73
2023/02/27 03:22:46;;;;;;;5.68;2.47;;;;;;;;;;5014141;28;20108;-74
2023/02/27 03:25:14;;;;;;;8.57;2.37;;;;;;;;;;5013733;28;20072;-73
2023/02/27 03:27:46;;;;;;;6.63;2.60;;;;;;;;;;4997913;28;20461;-73
2023/02/27 03:30:22;;;;;;;4.27;2.77;;;;;;;;;;5014331;28;20031;-74
2023/02/27 03:33:06;;;;;;;6.40;2.27;;;;;;;;;;5014266;28;20052;-74
2023/02/27 03:35:43;;;;;;;3.77;2.33;;;;;;;;;;5014343;28;20109;-74
2023/02/27 03:38:21;;;;;;;8.93;2.77;;;;;;;;;;5032111;28;20450;-74
2023/02/27 03:41:21;;;;;;;2.90;1.80;;;;;;;;;;5047460;28;20053;-74
2023/02/27 03:44:08;;;;;;;6.63;2.37;;;;;;;;;;5047581;28;20113;-74
2023/02/27 03:46:35;;;;;;;9.60;3.07;;;;;;;;;;5047062;28;20469;-73
2023/02/27 03:49:01;;;;;;;9.17;2.67;;;;;;;;;;5046788;28;20071;-73
2023/02/27 03:51:27;;;;;;;9.80;2.67;;;;;;;;;;5047234;28;20100;-73
2023/02/27 03:54:10;;;;;;;9.10;3.10;;;;;;;;;;5047451;28;20393;-74
2023/02/27 03:57:02;;;;;;;8.10;2.70;;;;;;;;;;5014082;28;20033;-73
2023/02/27 03:59:29;;;;;;;4.18;2.03;;;;;;;;;;5013989;28;20136;-73
2023/02/27 04:01:56;;;;;;;4.43;2.80;;;;;;;;;;5046795;28;20469;-75
2023/02/27 04:04:22;;;;;;;4.77;2.30;;;;;;;;;;5046692;28;20025;-73
2023/02/27 04:10:03;;;;;;;4.83;2.90;;;;;;;;;;5031568;28;20052;-74
2023/02/27 04:12:37;;;;;;;6.10;2.97;;;;;;;;;;5013539;28;20029;-74
2023/02/27 04:15:12;;;;;;;6.47;2.67;;;;;;;;;;5046242;28;20053;-74
2023/02/27 04:17:56;;;;;;;7.70;3.30;;;;;;;;;;5046479;28;20064;-74
2023/02/27 04:20:34;;;;;;;4.43;2.50;;;;;;;;;;5046638;28;20478;-74
2023/02/27 04:23:13;;;;;;;12.17;2.97;;;;;;;;;;5031293;28;20022;-74
2023/02/27 04:25:45;;;;;;;4.30;2.63;;;;;;;;;;5031003;28;20025;-74
2023/02/27 04:28:16;;;;;;;14.93;3.80;;;;;;;;;;5013046;28;20022;-74
2023/02/27 04:30:59;;;;;;;3.83;2.33;;;;;;;;;;5031623;28;20032;-74
2023/02/27 04:33:30;;;;;;;5.47;2.80;;;;;;;;;;5013374;28;20021;-75
2023/02/27 04:36:06;;;;;;;12.73;2.47;;;;;;;;;;5046834;28;20047;-74
2023/02/27 04:38:58;;;;;;;9.63;3.07;;;;;;;;;;5031298;28;20037;-75
2023/02/27 04:41:32;;;;;;;6.63;2.50;;;;;;;;;;5014011;28;20171;-76
2023/02/27 04:44:00;;;;;;;9.97;3.00;;;;;;;;;;5012255;28;20047;-75
2023/02/27 04:46:28;;;;;;;5.10;2.50;;;;;;;;;;5014648;28;20367;-76
2023/02/27 04:49:01;;;;;;;5.50;2.23;;;;;;;;;;5031166;28;20025;-76
2023/02/27 04:51:50;;;;;;;4.20;2.30;;;;;;;;;;5014632;28;20041;-76
2023/02/27 04:54:21;;;;;;;5.77;1.90;;;;;;;;;;5014341;28;20047;-75
2023/02/27 04:56:52;;;;;;;11.73;3.17;;;;;;;;;;5032687;28;20110;-77
2023/02/27 04:59:31;;;;;;;6.70;1.90;;;;;;;;;;5039679;28;20029;-75
2023/02/27 05:02:01;;;;;;;9.57;2.27;;;;;;;;;;5014782;28;20033;-74
2023/02/27 05:04:31;;;;;;;13.90;2.50;;;;;;;;;;5015678;28;20025;-76
2023/02/27 05:06:59;;;;;;;7.23;2.23;;;;;;;;;;5033084;28;20037;-75
2023/02/27 05:09:42;;;;;;;7.23;2.60;;;;;;;;;;5033451;28;20056;-76
2023/02/27 05:12:21;;;;;;;4.63;2.43;;;;;;;;;;5016016;28;20034;-74
2023/02/27 05:15:10;;;;;;;10.37;2.33;;;;;;;;;;5027608;28;20048;-75
2023/02/27 05:18:01;;;;;;;9.20;3.30;;;;;;;;;;5045874;28;20044;-75
2023/02/27 05:20:38;;;;;;;10.50;3.20;;;;;;;;;;5023978;28;20133;-76
2023/02/27 05:23:11;;;;;;;9.97;3.10;;;;;;;;;;5014416;28;20033;-75
2023/02/27 05:25:45;;;;;;;9.90;2.70;;;;;;;;;;5013374;28;20030;-75
2023/02/27 05:28:33;;;;;;;19.97;10.40;;;;;;;;;;5012800;28;20029;-76
2023/02/27 05:31:21;;;;;;;10.83;3.90;;;;;;;;;;5012662;28;20656;-76
2023/02/27 05:33:57;;;;;;;8.23;2.97;;;;;;;;;;5013067;28;20055;-76
2023/02/27 05:36:46;;;;;;;7.20;2.97;;;;;;;;;;5030545;28;20424;-76
2023/02/27 05:39:14;;;;;;;3.63;2.07;;;;;;;;;;5029784;28;20343;-76
2023/02/27 05:41:52;;;;;;;11.13;3.87;;;;;;;;;;5030372;28;20036;-76
2023/02/27 05:44:22;;;;;;;6.03;2.60;;;;;;;;;;4997181;28;20038;-76
2023/02/27 05:47:10;;;;;;;6.90;2.37;;;;;;;;;;5012916;28;20106;-76
2023/02/27 05:49:42;;;;;;;12.37;3.10;;;;;;;;;;5013514;28;20025;-75
2023/02/27 05:52:12;;;;;;;7.73;3.17;;;;;;;;;;5031589;28;20026;-76
2023/02/27 05:54:40;;;;;;;5.73;3.20;;;;;;;;;;5015598;28;20454;-76
2023/02/27 05:57:09;;;;;;;7.30;2.27;;;;;;;;;;5013505;28;20040;-77
2023/02/27 05:59:44;;;;;;;13.73;3.47;;;;;;;;;;5030829;28;20087;-76
2023/02/27 06:02:11;;;;;;;17.23;3.40;;;;;;;;;;5029151;28;20111;-77
2023/02/27 06:04:37;;;;;;;12.67;4.00;;;;;;;;;;5006275;28;20029;-72
2023/02/27 06:07:06;;;;;;;8.10;2.73;;;;;;;;;;4997871;28;20033;-77
2023/02/27 06:09:32;;;;;;;5.20;2.77;;;;;;;;;;5008313;28;20401;-80
2023/02/27 06:12:00;;;;;;;12.10;3.00;;;;;;;;;;5016653;28;20133;-77
2023/02/27 06:14:27;;;;;;;8.07;3.00;;;;;;;;;;4975563;28;20419;-76
2023/02/27 06:16:52;;;;;;;5.77;2.70;;;;;;;;;;5019745;28;20021;-79
2023/02/27 06:19:18;;;;;;;13.73;3.37;;;;;;;;;;5007402;28;20369;-82
2023/02/27 06:21:44;;;;;;;6.27;3.07;;;;;;;;;;5027377;28;20539;-77
2023/02/27 06:24:09;;;;;;;4.77;3.00;;;;;;;;;;5028933;28;20495;-78
2023/02/27 06:26:36;;;;;;;9.27;2.77;;;;;;;;;;5028122;28;20029;-83
2023/02/27 06:29:01;;;;;;;12.67;3.23;;;;;;;;;;5017506;28;20354;-79
2023/02/27 06:31:27;;;;;;;6.13;3.63;;;;;;;;;;5030108;28;20041;-77
2023/02/27 06:33:54;;;;;;;11.27;3.57;;;;;;;;;;5016252;28;20453;-75
2023/02/27 06:36:21;;;;;;;9.57;3.27;;;;;;;;;;5015495;28;20040;-78
2023/02/27 06:38:47;;;;;;;11.30;3.10;;;;;;;;;;5036382;28;20021;-76
2023/02/27 06:41:13;;;;;;;6.50;3.10;;;;;;;;;;5016877;28;20026;-78
2023/02/27 06:43:38;;;;;;;9.40;3.53;;;;;;;;;;5017047;28;20064;-76
2023/02/27 06:46:04;;;;;;;10.47;2.87;;;;;;;;;;5029159;28;20051;-76
2023/02/27 06:48:29;;;;;;;6.00;3.17;;;;;;;;;;5013300;28;20028;-76
2023/02/27 06:50:55;;;;;;;6.70;2.80;;;;;;;;;;5011790;28;20037;-77
2023/02/27 06:53:22;;;;;;;14.67;4.87;;;;;;;;;;5013088;28;20084;-75
2023/02/27 06:55:48;;;;;;;12.20;2.90;;;;;;;;;;5027290;28;20043;-77
2023/02/27 06:58:17;;;;;;;10.70;4.30;;;;;;;;;;5028508;28;20100;-79
2023/02/27 07:00:43;;;;;;;8.70;3.10;;;;;;;;;;5009051;28;20182;-76
2023/02/27 07:03:09;;;;;;;10.13;3.30;;;;;;;;;;5011839;28;20045;-78
2023/02/27 07:05:35;;;;;;;6.30;3.13;;;;;;;;;;5025344;28;20086;-76
2023/02/27 07:08:02;;;;;;;7.50;3.30;;;;;;;;;;5027715;28;20033;-75
2023/02/27 07:10:29;;;;;;;9.27;2.93;;;;;;;;;;5003963;28;20022;-76
2023/02/27 07:12:55;;;;;;;13.73;4.47;;;;;;;;;;5014355;28;20060;-75
2023/02/27 07:15:21;;;;;;;8.30;3.17;;;;;;;;;;5024121;28;20096;-78
2023/02/27 07:17:46;;;;;;;8.23;3.27;;;;;;;;;;5027372;28;20072;-78
2023/02/27 07:20:12;;;;;;;17.20;4.40;;;;;;;;;;5006783;28;20025;-76
2023/02/27 07:22:39;;;;;;;12.43;3.10;;;;;;;;;;5021894;28;20033;-76
2023/02/27 07:25:06;;;;;;;16.67;4.00;;;;;;;;;;4990164;28;20038;-76
2023/02/27 07:27:32;;;;;;;10.90;2.77;;;;;;;;;;5000953;28;20505;-75
2023/02/27 07:29:58;;;;;;;9.87;4.63;;;;;;;;;;5022757;28;20139;-77
2023/02/27 07:32:23;;;;;;;7.43;4.00;;;;;;;;;;5029038;28;20105;-77
2023/02/27 07:34:49;;;;;;;11.90;4.60;;;;;;;;;;5007777;28;20894;-77
2023/02/27 07:37:14;;;;;;;12.10;3.70;;;;;;;;;;5004337;28;20055;-75
2023/02/27 07:39:41;;;;;;;9.07;2.97;;;;;;;;;;5002592;28;20040;-74
2023/02/27 07:42:07;;;;;;;7.33;3.50;;;;;;;;;;5009613;28;20025;-76
2023/02/27 07:44:39;;;;;;;9.07;2.87;;;;;;;;;;5002607;28;20707;-75
2023/02/27 07:47:08;;;;;;;7.40;3.03;;;;;;;;;;5024663;28;20505;-74
2023/02/27 07:49:33;;;;;;;14.83;3.30;;;;;;;;;;5006783;28;20013;-77
2023/02/27 07:52:27;;;;;;;15.70;4.40;;;;;;;;;;5026441;28;20520;-76
2023/02/27 07:54:52;;;;;;;8.97;3.37;;;;;;;;;;5007019;28;20508;-77
2023/02/27 07:57:18;;;;;;;9.37;3.03;;;;;;;;;;5020639;28;20036;-75
2023/02/27 07:59:44;;;;;;;9.17;4.20;;;;;;;;;;5024261;28;20076;-78
2023/02/27 08:02:11;;;;;;;10.83;4.90;;;;;;;;;;5005791;28;20057;-79
2023/02/27 08:04:37;;;;;;;10.50;3.37;;;;;;;;;;5000854;28;20081;-76
2023/02/27 08:07:03;;;;;;;12.57;3.47;;;;;;;;;;5020199;28;20029;-76
2023/02/27 08:09:29;;;;;;;9.07;3.07;;;;;;;;;;4998106;28;20098;-75
2023/02/27 08:11:56;;;;;;;10.27;4.50;;;;;;;;;;4987254;28;20646;-74
2023/02/27 08:14:21;;;;;;;9.53;3.73;;;;;;;;;;5000249;28;20049;-76
2023/02/27 08:16:47;;;;;;;7.13;3.23;;;;;;;;;;5004579;28;21007;-78
2023/02/27 08:19:15;;;;;;;5.87;3.37;;;;;;;;;;5002784;28;20049;-77
2023/02/27 08:21:55;;;;;;;10.83;3.33;;;;;;;;;;5022624;28;20033;-78
2023/02/27 08:24:20;;;;;;;29.23;4.37;;;;;;;;;;5005067;28;20694;-79
2023/02/27 08:26:48;;;;;;;8.37;2.90;;;;;;;;;;5004403;28;20029;-75
2023/02/27 08:29:13;;;;;;;6.20;2.23;;;;;;;;;;5001789;28;20032;-78
2023/02/27 08:31:40;;;;;;;11.60;3.80;;;;;;;;;;5021764;28;20480;-78
2023/02/27 08:34:06;;;;;;;8.97;3.07;;;;;;;;;;5003225;28;20091;-78
2023/02/27 08:37:13;;;;;;;8.33;2.90;;;;;;;;;;4998216;28;20451;-78
2023/02/27 08:39:39;;;;;;;7.20;2.97;;;;;;;;;;5000500;28;20091;-76
2023/02/27 08:42:05;;;;;;;7.77;2.60;;;;;;;;;;4998117;28;20056;-76
2023/02/27 08:44:31;;;;;;;5.77;2.63;;;;;;;;;;5002261;28;20099;-78
2023/02/27 08:46:57;;;;;;;7.67;2.80;;;;;;;;;;5024008;28;20041;-78
2023/02/27 08:49:24;;;;;;;7.40;2.57;;;;;;;;;;5005068;28;20057;-77
2023/02/27 08:51:50;;;;;;;6.23;2.30;;;;;;;;;;5031230;28;20044;-77
2023/02/27 08:54:15;;;;;;;6.30;2.40;;;;;;;;;;4995916;28;20107;-78
2023/02/27 08:56:41;;;;;;;6.43;2.97;;;;;;;;;;5014779;28;20059;-77
2023/02/27 08:59:07;;;;;;;5.30;2.03;;;;;;;;;;4993197;28;20455;-75
2023/02/27 09:01:33;;;;;;;3.63;2.20;;;;;;;;;;5022101;28;20526;-76
2023/02/27 09:04:03;;;;;;;10.60;3.67;;;;;;;;;;5003334;28;20242;-79
2023/02/27 09:06:45;;;;;;;7.70;2.40;;;;;;;;;;4999149;28;20033;-81
2023/02/27 09:09:11;;;;;;;9.23;2.03;;;;;;;;;;5012373;28;20036;-77
2023/02/27 09:11:36;;;;;;;9.63;2.87;;;;;;;;;;5019584;28;20048;-77
2023/02/27 09:14:02;;;;;;;9.73;2.17;;;;;;;;;;4994645;28;20588;-76
2023/02/27 09:16:28;;;;;;;8.23;2.63;;;;;;;;;;5017488;28;20045;-78
2023/02/27 09:18:54;;;;;;;8.03;3.63;;;;;;;;;;5000380;28;20486;-76
2023/02/27 09:21:19;;;;;;;6.13;2.60;;;;;;;;;;5003404;28;20033;-76
2023/02/27 09:23:45;;;;;;;15.63;4.07;;;;;;;;;;5032144;28;20430;-76
2023/02/27 09:26:14;;;;;;;9.47;3.00;;;;;;;;;;4999699;28;20473;-74
2023/02/27 09:28:40;;;;;;;5.10;2.30;;;;;;;;;;5016302;28;20079;-75
2023/02/27 09:31:07;;;;;;;9.03;2.80;;;;;;;;;;5019857;28;20033;-76
2023/02/27 09:33:34;;;;;;;8.60;2.37;;;;;;;;;;5028234;28;20526;-76
2023/02/27 09:36:00;;;;;;;4.17;2.30;;;;;;;;;;5002141;28;20041;-74
2023/02/27 09:38:26;;;;;;;4.07;2.20;;;;;;;;;;5017519;28;20099;-75
2023/02/27 09:40:58;;;;;;;5.83;2.70;;;;;;;;;;5018336;28;20068;-80
2023/02/27 09:43:39;;;;;;;7.60;2.13;;;;;;;;;;5020507;28;20036;-77
2023/02/27 09:46:06;;;;;;;6.50;2.20;;;;;;;;;;5017183;28;20576;-77
2023/02/27 09:48:41;;;;;;;9.87;2.40;;;;;;;;;;4999189;28;20034;-76
2023/02/27 09:51:07;;;;;;;6.10;1.87;;;;;;;;;;4999898;28;20057;-77
2023/02/27 09:53:38;;;;;;;6.77;2.50;;;;;;;;;;5021076;28;20128;-79
2023/02/27 09:56:13;;;;;;;5.23;2.30;;;;;;;;;;5002484;28;20029;-78
2023/02/27 09:58:55;;;;;;;7.73;1.90;;;;;;;;;;5018441;28;20033;-79
2023/02/27 10:01:29;;;;;;;15.33;8.07;;;;;;;;;;5022505;28;20045;-77
2023/02/27 10:04:20;;;;;;;6.77;2.07;;;;;;;;;;5026803;28;20458;-78
2023/02/27 10:07:02;;;;;;;5.10;2.00;;;;;;;;;;5016797;28;20037;-79
2023/02/27 10:09:46;;;;;;;3.20;1.52;;;;;;;;;;5016860;28;20037;-76
2023/02/27 10:12:25;;;;;;;4.03;1.47;;;;;;;;;;5034209;28;20025;-79
2023/02/27 10:15:09;;;;;;;2.23;1.43;;;;;;;;;;5026933;28;20779;-76
2023/02/27 10:17:38;;;;;;;10.27;1.80;;;;;;;;;;5018438;28;20421;-75
2023/02/27 10:20:26;;;;;;;7.20;1.60;;;;;;;;;;5018570;28;20029;-73
2023/02/27 10:22:56;;;;;;;6.23;2.10;;;;;;;;;;5014897;28;20508;-76
2023/02/27 10:25:22;;;;;;;24.07;4.47;;;;;;;;;;5020396;28;20072;-77
2023/02/27 10:27:52;;;;;;;5.17;1.60;;;;;;;;;;5005820;28;20029;-78
2023/02/27 10:30:24;;;;;;;7.87;2.27;;;;;;;;;;5016813;28;20033;-77
2023/02/27 10:33:28;;;;;;;7.17;2.50;;;;;;;;;;5001122;28;20037;-77
2023/02/27 10:35:54;;;;;;;5.00;2.13;;;;;;;;;;4995470;28;20021;-80
2023/02/27 10:38:20;;;;;;;4.20;2.27;;;;;;;;;;4999553;28;20037;-76
2023/02/27 10:40:47;;;;;;;7.87;1.93;;;;;;;;;;5025716;28;20036;-81
2023/02/27 10:43:17;;;;;;;3.73;1.50;;;;;;;;;;5009523;28;20080;-79
2023/02/27 10:45:43;;;;;;;2.97;1.50;;;;;;;;;;5004733;28;20150;-80
2023/02/27 10:48:10;;;;;;;6.60;1.60;;;;;;;;;;5020899;28;20450;-76
2023/02/27 10:50:40;;;;;;;4.10;1.47;;;;;;;;;;5005987;28;20277;-78
2023/02/27 10:53:26;;;;;;;4.83;1.60;;;;;;;;;;5001975;28;20424;-78
2023/02/27 10:56:03;;;;;;;20.10;4.57;;;;;;;;;;4983539;28;20071;-80
2023/02/27 10:58:38;;;;;;;6.67;1.67;;;;;;;;;;5000024;28;20385;-79
2023/02/27 11:01:07;;;;;;;2.83;1.60;;;;;;;;;;5000160;28;20041;-77
2023/02/27 11:03:39;;;;;;;5.03;1.60;;;;;;;;;;5018882;28;20025;-77
2023/02/27 11:06:25;;;;;;;8.47;1.93;;;;;;;;;;5010967;28;20029;-78
2023/02/27 11:09:09;;;;;;;4.73;2.73;;;;;;;;;;4997046;28;20274;-78
2023/02/27 11:11:35;;;;;;;4.07;1.50;;;;;;;;;;5019361;28;20036;-78
2023/02/27 11:14:32;;;;;;;5.00;1.33;;;;;;;;;;4996129;28;20037;-77
2023/02/27 11:17:01;;;;;;;3.83;1.70;;;;;;;;;;5014984;28;20041;-77
2023/02/27 11:19:33;;;;;;;4.00;1.43;;;;;;;;;;5000912;28;20025;-77
2023/02/27 11:22:17;;;;;;;2.22;1.23;;;;;;;;;;5005167;28;20029;-76
2023/02/27 11:24:43;;;;;;;6.97;1.30;;;;;;;;;;5026308;28;20262;-75
2023/02/27 11:27:25;;;;;;;8.43;1.80;;;;;;;;;;5016402;28;20120;-78
2023/02/27 11:29:58;;;;;;;7.70;2.65;;;;;;;;;;4994412;28;20512;-78
2023/02/27 11:32:34;;;;;;;6.43;1.20;;;;;;;;;;5026611;28;20030;-75
2023/02/27 11:35:03;;;;;;;2.10;1.40;;;;;;;;;;5021221;28;20037;-76
2023/02/27 11:37:33;;;;;;;9.10;1.97;;;;;;;;;;5020842;28;20029;-81
2023/02/27 11:40:09;;;;;;;2.37;1.13;;;;;;;;;;5000331;28;20034;-75
2023/02/27 11:42:40;;;;;;;6.10;1.63;;;;;;;;;;4999664;28;20143;-80
2023/02/27 11:45:30;;;;;;;3.10;1.45;;;;;;;;;;5021685;28;20102;-77
2023/02/27 11:48:11;;;;;;;3.37;1.50;;;;;;;;;;5020144;28;20044;-76
2023/02/27 11:50:58;;;;;;;4.93;1.00;;;;;;;;;;5014740;28;20421;-76
2023/02/27 11:53:27;;;;;;;3.90;1.00;;;;;;;;;;4995490;28;20029;-76
2023/02/27 11:55:55;;;;;;;4.07;1.13;;;;;;;;;;5016250;28;20397;-80
2023/02/27 11:58:23;;;;;;;5.87;1.33;;;;;;;;;;5017348;28;20120;-75
2023/02/27 12:00:52;;;;;;;2.30;1.10;;;;;;;;;;5001698;28;20039;-77
2023/02/27 12:03:30;;;;;;;7.77;1.20;;;;;;;;;;5005623;28;20029;-79
2023/02/27 12:06:00;;;;;;;2.43;1.10;;;;;;;;;;5022530;28;20056;-78
2023/02/27 12:08:59;;;;;;;9.80;2.97;;;;;;;;;;4993648;28;20041;-77
2023/02/27 12:11:34;;;;;;;8.17;1.90;;;;;;;;;;5020092;28;20412;-78
2023/02/27 12:14:24;;;;;;;7.93;1.97;;;;;;;;;;5006312;28;20040;-76
2023/02/27 12:17:08;;;;;;;5.23;0.83;;;;;;;;;;5005366;28;20124;-78
2023/02/27 12:19:43;;;;;;;4.50;1.60;;;;;;;;;;5002100;28;20188;-81
2023/02/27 12:22:19;;;;;;;1.80;1.20;;;;;;;;;;5021264;28;20021;-79
2023/02/27 12:24:57;;;;;;;3.23;1.10;;;;;;;;;;5021163;28;20140;-77
2023/02/27 12:27:28;;;;;;;3.00;1.23;;;;;;;;;;5021524;28;20616;-78
2023/02/27 12:30:01;;;;;;;2.17;1.20;;;;;;;;;;5019287;28;20077;-78
2023/02/27 12:32:36;;;;;;;0.97;0.93;;;;;;;;;;5007756;28;20029;-77
2023/02/27 12:35:11;;;;;;;4.77;1.37;;;;;;;;;;5033451;28;20105;-79
2023/02/27 12:37:37;;;;;;;2.47;1.20;;;;;;;;;;5017353;28;20041;-79
2023/02/27 12:40:09;;;;;;;5.33;1.40;;;;;;;;;;5022955;28;20029;-80
2023/02/27 12:42:53;;;;;;;3.40;1.42;;;;;;;;;;4999208;28;20036;-80
2023/02/27 12:45:46;;;;;;;6.03;1.50;;;;;;;;;;5003383;28;20029;-78
2023/02/27 12:48:36;;;;;;;2.53;1.30;;;;;;;;;;5008071;28;20029;-81
2023/02/27 12:54:39;;;;;;;8.07;2.40;;;;;;;;;;5025666;28;20754;-76
2023/02/27 12:57:38;;;;;;;4.07;1.60;;;;;;;;;;5022491;28;20036;-82
2023/02/27 13:00:11;;;;;;;5.10;1.30;;;;;;;;;;4996140;28;20040;-79
2023/02/27 13:02:58;;;;;;;1.57;1.00;;;;;;;;;;5022910;28;20124;-76
2023/02/27 13:05:45;;;;;;;6.50;1.53;;;;;;;;;;5027859;28;20018;-79
2023/02/27 13:08:54;;;;;;;3.40;1.83;;;;;;;;;;5014322;28;20033;-79
2023/02/27 13:11:34;;;;;;;0.73;0.63;;;;;;;;;;5000691;28;20033;-76
2023/02/27 13:14:23;;;;;;;3.70;1.20;;;;;;;;;;5000822;28;20037;-75
2023/02/27 13:17:23;;;;;;;4.17;2.07;;;;;;;;;;5004101;28;20034;-79
2023/02/27 13:20:00;;;;;;;6.18;1.60;;;;;;;;;;5018399;28;20044;-79
2023/02/27 13:22:42;;;;;;;2.13;1.10;;;;;;;;;;5002907;28;20029;-79
2023/02/27 13:25:14;;;;;;;4.10;1.57;;;;;;;;;;5004323;28;20124;-81
2023/02/27 13:27:52;;;;;;;2.63;1.63;;;;;;;;;;5020787;28;20175;-77
2023/02/27 13:30:29;;;;;;;2.40;1.50;;;;;;;;;;5014102;28;20021;-76
2023/02/27 13:33:29;;;;;;;5.23;1.43;;;;;;;;;;5023972;28;20444;-81
2023/02/27 13:36:13;;;;;;;6.97;1.67;;;;;;;;;;5023863;28;20116;-81
2023/02/27 13:38:49;;;;;;;5.50;1.30;;;;;;;;;;5004947;28;20051;-77
2023/02/27 13:41:23;;;;;;;2.17;1.23;;;;;;;;;;5000643;28;20044;-78
2023/02/27 13:43:54;;;;;;;2.20;1.20;;;;;;;;;;5021117;28;20340;-78
2023/02/27 13:46:24;;;;;;;8.30;1.70;;;;;;;;;;5002767;28;20065;-76
2023/02/27 13:48:52;;;;;;;8.50;1.97;;;;;;;;;;4998493;28;20572;-77
2023/02/27 13:52:01;;;;;;;2.47;1.30;;;;;;;;;;4999664;28;20032;-78
2023/02/27 13:54:33;;;;;;;4.40;1.60;;;;;;;;;;5019143;28;20058;-78
2023/02/27 13:57:20;;;;;;;3.05;1.42;;;;;;;;;;5017776;28;20114;-78
2023/02/27 14:00:18;;;;;;;2.47;1.50;;;;;;;;;;5018397;28;20113;-76
2023/02/27 14:02:52;;;;;;;5.63;1.43;;;;;;;;;;5009362;28;20076;-76
2023/02/27 14:05:40;;;;;;;12.33;2.90;;;;;;;;;;4992356;28;20032;-77
2023/02/27 14:08:21;;;;;;;5.63;1.80;;;;;;;;;;5006728;28;20504;-77
2023/02/27 14:11:45;;;;;;;7.00;1.97;;;;;;;;;;5004882;28;20025;-76
2023/02/27 14:14:43;;;;;;;2.50;1.33;;;;;;;;;;4962194;28;20122;-79
2023/02/27 14:17:43;;;;;;;5.80;2.20;;;;;;;;;;5030507;28;20490;-78
2023/02/27 14:20:39;;;;;;;6.13;2.00;;;;;;;;;;5008443;28;20041;-78
2023/02/27 14:23:14;;;;;;;3.37;2.13;;;;;;;;;;5028156;28;20876;-81
2023/02/27 14:26:04;;;;;;;7.47;2.23;;;;;;;;;;5024558;28;20116;-77
2023/02/27 14:28:59;;;;;;;4.33;1.50;;;;;;;;;;5004688;28;20068;-78
2023/02/27 14:31:31;;;;;;;7.00;1.80;;;;;;;;;;5006733;28;20029;-79
2023/02/27 14:34:03;;;;;;;5.77;2.30;;;;;;;;;;5026542;28;20029;-80
2023/02/27 14:36:51;;;;;;;5.47;2.00;;;;;;;;;;5005652;28;20065;-81
2023/02/27 14:39:37;;;;;;;5.80;2.20;;;;;;;;;;5017659;28;20057;-79
2023/02/27 14:42:15;;;;;;;3.93;2.37;;;;;;;;;;5033312;28;20534;-79
2023/02/27 14:44:49;;;;;;;2.23;1.67;;;;;;;;;;5024752;28;20041;-76
2023/02/27 14:47:23;;;;;;;4.23;2.43;;;;;;;;;;5028096;28;20041;-80
2023/02/27 14:49:49;;;;;;;2.77;1.47;;;;;;;;;;5008426;28;20036;-80
2023/02/27 14:52:19;;;;;;;3.07;1.47;;;;;;;;;;4994517;28;20043;-81
2023/02/27 14:54:47;;;;;;;6.07;2.73;;;;;;;;;;5015264;28;20036;-78
2023/02/27 14:57:26;;;;;;;5.93;2.10;;;;;;;;;;5050318;28;20063;-80
2023/02/27 14:59:53;;;;;;;5.80;1.77;;;;;;;;;;5024839;28;20028;-79
2023/02/27 15:02:33;;;;;;;3.30;1.83;;;;;;;;;;5029277;28;20033;-81
2023/02/27 15:05:02;;;;;;;3.73;2.10;;;;;;;;;;5027994;28;20068;-79
2023/02/27 15:07:34;;;;;;;6.80;2.40;;;;;;;;;;5025003;28;20034;-80
2023/02/27 15:10:09;;;;;;;14.87;2.83;;;;;;;;;;5002330;28;20052;-76
2023/02/27 15:12:39;;;;;;;7.27;2.53;;;;;;;;;;5025889;28;20040;-80
2023/02/27 15:15:07;;;;;;;4.20;2.60;;;;;;;;;;5024014;28;20103;-75
2023/02/27 15:17:39;;;;;;;12.83;2.93;;;;;;;;;;4997727;28;20065;-79
2023/02/27 15:20:24;;;;;;;6.60;2.53;;;;;;;;;;4997905;28;20053;-80
2023/02/27 15:22:50;;;;;;;5.67;2.50;;;;;;;;;;5003844;28;20093;-78
2023/02/27 15:25:39;;;;;;;7.10;1.90;;;;;;;;;;5023582;28;20337;-78
2023/02/27 15:28:21;;;;;;;5.23;2.50;;;;;;;;;;5005620;28;20419;-79